Time;durP1;ratioP1;P1;durP2;ratioP2;P2;SDS_P1;SDS_P2;PMS_P1;PMS_P2;Temp;Humidity;BMP_temperature;BMP_pressure;BME280_temperature;BME280_humidity;BME280_pressure;Samples;Min_cycle;Max_cycle;Signal;HPM_P1;HPM_P2
2022/03/26 00:02:04;;;;;;;;;43.00;34.00;;;;;16.57;31.67;102397.13;4957952;28;46366;-81
2022/03/26 00:04:29;;;;;;;;;40.50;33.00;;;;;16.62;31.17;102408.59;4974683;28;45418;-82
2022/03/26 00:06:54;;;;;;;;;37.50;30.00;;;;;16.37;31.71;102375.56;4974731;28;45517;-81
2022/03/26 00:09:20;;;;;;;;;36.75;33.25;;;;;16.49;31.68;102398.41;4975111;28;45520;-81
2022/03/26 00:11:45;;;;;;;;;47.75;36.25;;;;;16.41;31.54;102386.16;4974496;28;47155;-81
2022/03/26 00:14:11;;;;;;;;;40.75;32.75;;;;;16.29;31.85;102367.78;4974239;27;45295;-81
2022/03/26 00:16:36;;;;;;;;;34.25;32.00;;;;;16.50;31.68;102411.78;4974781;28;45291;-81
2022/03/26 00:19:02;;;;;;;;;33.75;32.00;;;;;16.48;31.94;102407.41;4974693;28;45469;-81
2022/03/26 00:21:27;;;;;;;;;40.75;35.25;;;;;16.32;31.74;102385.63;4974308;28;45745;-81
2022/03/26 00:23:52;;;;;;;;;38.25;33.00;;;;;16.44;31.97;102409.34;4957220;28;45393;-81
2022/03/26 00:26:18;;;;;;;;;29.75;25.75;;;;;16.39;32.35;102409.53;4974277;28;45502;-81
2022/03/26 00:28:43;;;;;;;;;33.75;31.75;;;;;16.37;32.31;102410.56;4975079;28;45465;-81
2022/03/26 00:31:09;;;;;;;;;35.75;31.75;;;;;16.18;32.05;102392.47;4974088;28;45563;-81
2022/03/26 00:33:34;;;;;;;;;40.00;27.75;;;;;16.11;32.24;102382.91;4974349;28;45567;-81
2022/03/26 00:36:00;;;;;;;;;36.00;34.50;;;;;15.85;32.67;102343.63;4974316;28;45960;-81
2022/03/26 00:38:25;;;;;;;;;44.50;34.75;;;;;16.22;32.36;102412.94;4974584;28;45546;-82
2022/03/26 00:40:51;;;;;;;;;35.75;33.00;;;;;16.11;32.58;102399.03;4974759;28;46607;-81
2022/03/26 00:43:17;;;;;;;;;44.50;35.50;;;;;15.90;32.54;102354.19;4969177;28;45725;-81
2022/03/26 00:45:42;;;;;;;;;44.75;31.75;;;;;16.14;32.69;102406.97;4958123;28;45552;-81
2022/03/26 00:48:08;;;;;;;;;36.50;32.50;;;;;16.12;32.96;102410.66;4958024;28;45545;-81
2022/03/26 00:50:34;;;;;;;;;42.25;35.25;;;;;16.06;32.93;102405.53;4956281;28;47210;-81
2022/03/26 00:53:00;;;;;;;;;31.75;27.00;;;;;16.04;32.64;102413.69;4957749;28;45474;-81
2022/03/26 00:55:26;;;;;;;;;34.50;29.75;;;;;15.84;32.60;102371.44;4957233;28;48688;-81
2022/03/26 00:57:51;;;;;;;;;43.25;32.50;;;;;15.91;32.77;102388.19;4963231;28;45267;-81
2022/03/26 01:00:17;;;;;;;;;44.50;32.25;;;;;15.81;32.99;102371.56;4976816;28;45499;-81
2022/03/26 01:02:42;;;;;;;;;44.00;33.25;;;;;15.97;32.78;102404.97;5011892;28;45331;-81
2022/03/26 01:05:08;;;;;;;;;42.75;34.25;;;;;15.77;32.84;102373.47;5059989;28;45504;-81
2022/03/26 01:07:33;;;;;;;;;39.50;32.00;;;;;15.81;32.83;102396.63;5042258;28;45683;-81
2022/03/26 01:09:59;;;;;;;;;34.75;32.25;;;;;15.69;32.91;102364.81;5059663;28;46535;-81
2022/03/26 01:12:25;;;;;;;;;43.25;34.75;;;;;15.87;33.28;102403.56;5059526;28;45416;-81
2022/03/26 01:14:52;;;;;;;;;39.75;36.00;;;;;15.85;33.10;102401.88;5060114;28;45543;-81
2022/03/26 01:17:19;;;;;;;;;41.25;33.25;;;;;15.47;33.12;102353.13;5059820;28;45412;-81
2022/03/26 01:19:44;;;;;;;;;36.75;30.50;;;;;15.41;33.40;102343.50;5059654;28;46218;-81
2022/03/26 01:22:10;;;;;;;;;42.75;35.50;;;;;15.30;33.38;102330.47;5059432;28;45833;-81
2022/03/26 01:24:36;;;;;;;;;39.00;34.25;;;;;15.73;33.28;102408.59;5048145;28;45575;-81
2022/03/26 01:27:01;;;;;;;;;42.25;35.50;;;;;15.44;33.45;102358.63;4977122;28;45382;-81
2022/03/26 01:29:27;;;;;;;;;36.50;32.75;;;;;15.25;33.47;102334.28;4959227;28;46153;-81
2022/03/26 01:31:53;;;;;;;;;42.50;34.25;;;;;15.40;33.60;102374.00;4957358;28;45375;-81
2022/03/26 01:34:19;;;;;;;;;45.75;34.75;;;;;15.46;33.57;102386.34;4957008;28;45480;-81
2022/03/26 01:36:44;;;;;;;;;43.00;32.75;;;;;15.52;33.65;102403.09;4957404;28;45336;-81
2022/03/26 01:39:10;;;;;;;;;37.50;31.75;;;;;15.49;33.95;102395.13;4956828;28;45533;-81
2022/03/26 01:41:36;;;;;;;;;48.50;34.75;;;;;15.35;33.74;102373.28;4956891;28;45396;-81
2022/03/26 01:44:01;;;;;;;;;43.00;35.25;;;;;15.39;33.81;102389.25;4958946;28;45455;-82
2022/03/26 01:46:27;;;;;;;;;44.50;35.00;;;;;15.18;33.99;102350.63;4976363;28;45320;-81
2022/03/26 01:48:53;;;;;;;;;30.25;28.25;;;;;15.21;33.94;102357.69;4976663;28;45367;-81
2022/03/26 01:51:19;;;;;;;;;39.50;31.50;;;;;15.32;34.02;102374.28;4976710;28;45444;-81
2022/03/26 01:53:50;;;;;;;;;43.25;34.75;;;;;15.20;33.92;102358.63;4976749;28;45324;-81
2022/03/26 01:56:16;;;;;;;;;27.25;21.50;;;;;15.27;34.06;102372.72;4991947;27;45403;-81
2022/03/26 01:58:42;;;;;;;;;36.25;28.50;;;;;15.24;34.31;102376.41;4976400;28;46485;-81
2022/03/26 02:01:08;;;;;;;;;48.25;35.75;;;;;15.14;34.19;102361.53;4976663;28;45560;-81
2022/03/26 02:03:33;;;;;;;;;41.00;36.50;;;;;15.22;34.02;102378.25;4973062;28;45395;-81
2022/03/26 02:05:59;;;;;;;;;38.00;33.50;;;;;15.18;34.29;102372.09;4957508;28;45467;-81
2022/03/26 02:08:24;;;;;;;;;25.50;23.00;;;;;15.17;34.37;102385.59;4956815;28;46073;-81
2022/03/26 02:10:50;;;;;;;;;39.50;34.25;;;;;15.06;34.39;102351.09;4956942;28;45390;-81
2022/03/26 02:13:16;;;;;;;;;40.00;33.00;;;;;14.94;34.45;102330.06;4957072;28;45455;-81
2022/03/26 02:15:41;;;;;;;;;35.00;31.75;;;;;15.05;34.35;102361.88;4956791;28;45644;-81
2022/03/26 02:18:09;;;;;;;;;40.25;34.00;;;;;14.96;34.71;102353.22;4956744;28;45339;-81
2022/03/26 02:20:35;;;;;;;;;45.50;34.75;;;;;14.98;34.58;102364.81;4935935;28;45470;-81
2022/03/26 02:23:01;;;;;;;;;41.00;30.50;;;;;15.04;34.74;102378.94;4939085;28;45553;-81
2022/03/26 02:25:27;;;;;;;;;42.50;32.00;;;;;14.96;34.54;102369.34;4957425;28;45362;-81
2022/03/26 02:27:53;;;;;;;;;40.50;31.00;;;;;14.95;34.95;102370.25;4971484;28;47442;-81
2022/03/26 02:30:20;;;;;;;;;41.25;35.75;;;;;14.72;35.14;102346.91;4950203;28;45422;-81
2022/03/26 02:32:45;;;;;;;;;43.50;34.50;;;;;14.39;35.20;102292.59;4937372;28;45298;-81
2022/03/26 02:35:10;;;;;;;;;39.50;33.50;;;;;14.62;35.00;102326.72;4937450;28;45303;-81
2022/03/26 02:37:36;;;;;;;;;36.75;33.75;;;;;14.72;34.89;102359.47;4937069;28;45989;-81
2022/03/26 02:40:06;;;;;;;;;41.75;33.25;;;;;14.80;35.10;102373.50;4937033;28;45469;-82
2022/03/26 02:42:33;;;;;;;;;37.25;32.00;;;;;14.78;35.08;102361.94;4937235;28;45382;-81
2022/03/26 02:44:58;;;;;;;;;41.25;34.00;;;;;14.77;35.11;102373.59;4937399;28;45380;-82
2022/03/26 02:47:24;;;;;;;;;30.50;28.25;;;;;14.74;35.23;102369.22;4937137;28;45457;-81
2022/03/26 02:49:49;;;;;;;;;40.75;35.50;;;;;14.62;34.82;102341.94;4936914;28;45346;-81
2022/03/26 02:52:15;;;;;;;;;42.75;36.25;;;;;14.45;35.19;102324.59;4937093;28;45272;-82
2022/03/26 02:54:41;;;;;;;;;39.50;34.25;;;;;14.28;35.06;102295.69;4937410;28;45350;-81
2022/03/26 02:57:06;;;;;;;;;30.75;28.50;;;;;14.48;35.02;102328.97;4936765;28;45385;-81
2022/03/26 02:59:31;;;;;;;;;34.00;31.00;;;;;14.55;35.48;102343.97;4937100;28;45421;-81
2022/03/26 03:01:57;;;;;;;;;34.25;31.75;;;;;14.68;35.20;102366.75;4939068;28;45215;-81
2022/03/26 03:04:22;;;;;;;;;41.75;33.75;;;;;14.69;35.33;102365.81;4956569;28;45242;-82
2022/03/26 03:06:48;;;;;;;;;44.25;35.50;;;;;14.44;35.12;102328.19;4955412;28;45337;-81
2022/03/26 03:09:14;;;;;;;;;35.00;31.50;;;;;14.64;35.53;102359.75;4955673;28;45290;-81
2022/03/26 03:11:39;;;;;;;;;40.50;35.00;;;;;14.46;35.55;102337.06;4955956;28;45341;-81
2022/03/26 03:14:06;;;;;;;;;40.75;34.25;;;;;14.54;35.62;102358.31;4956201;28;45365;-81
2022/03/26 03:16:32;;;;;;;;;43.75;34.00;;;;;14.25;35.38;102309.16;4955971;28;45383;-81
2022/03/26 03:18:58;;;;;;;;;34.25;30.75;;;;;14.50;35.53;102368.22;4970890;28;45954;-82
2022/03/26 03:21:24;;;;;;;;;45.75;36.50;;;;;14.43;35.52;102347.91;4971204;28;45396;-81
2022/03/26 03:23:49;;;;;;;;;47.00;34.50;;;;;14.19;35.61;102316.53;4956198;28;45417;-81
2022/03/26 03:26:15;;;;;;;;;44.50;34.75;;;;;14.35;36.04;102340.13;4956007;28;45402;-81
2022/03/26 03:28:41;;;;;;;;;37.50;34.25;;;;;14.43;35.70;102361.31;4956043;28;45307;-81
2022/03/26 03:31:07;;;;;;;;;43.00;35.75;;;;;14.36;35.75;102351.72;4970643;28;45924;-81
2022/03/26 03:33:33;;;;;;;;;23.50;17.00;;;;;14.44;36.03;102365.75;4956457;28;45264;-81
2022/03/26 03:35:59;;;;;;;;;46.00;35.25;;;;;14.15;35.83;102321.16;4955458;28;45973;-81
2022/03/26 03:38:25;;;;;;;;;43.75;36.00;;;;;14.35;36.01;102360.69;4956093;28;45434;-81
2022/03/26 03:40:51;;;;;;;;;54.00;40.00;;;;;14.17;36.28;102338.06;4955901;28;45358;-81
2022/03/26 03:43:16;;;;;;;;;43.00;35.00;;;;;14.14;36.45;102340.81;4972584;28;45409;-81
2022/03/26 03:45:42;;;;;;;;;39.75;34.25;;;;;14.30;36.17;102371.56;4975343;28;46122;-81
2022/03/26 03:48:07;;;;;;;;;41.75;34.75;;;;;14.08;36.54;102333.88;4975133;28;45369;-81
2022/03/26 03:50:33;;;;;;;;;50.75;39.75;;;;;14.07;36.48;102339.28;4975667;28;45897;-81
2022/03/26 03:52:58;;;;;;;;;46.25;36.50;;;;;14.15;36.65;102362.22;4975213;28;45555;-81
2022/03/26 03:55:24;;;;;;;;;45.75;40.00;;;;;13.75;36.77;102306.38;4975057;28;46203;-81
2022/03/26 03:57:49;;;;;;;;;46.50;39.75;;;;;14.04;36.94;102358.16;4974923;28;45381;-81
2022/03/26 04:00:16;;;;;;;;;50.00;41.50;;;;;13.92;37.04;102337.97;4974883;28;45393;-81
2022/03/26 04:02:42;;;;;;;;;52.25;39.00;;;;;14.00;37.09;102360.06;4967301;28;45400;-81
2022/03/26 04:05:09;;;;;;;;;47.50;36.50;;;;;14.01;36.75;102379.72;4955115;28;45650;-81
2022/03/26 04:07:39;;;;;;;;;52.25;40.00;;;;;13.89;36.87;102359.53;4955350;28;45333;-81
2022/03/26 04:10:07;;;;;;;;;44.25;38.25;;;;;13.99;37.03;102382.41;4955206;28;45244;-81
2022/03/26 04:12:40;;;;;;;;;48.50;41.25;;;;;13.92;37.36;102380.88;4955776;28;45267;-81
2022/03/26 04:15:07;;;;;;;;;45.50;39.25;;;;;13.78;37.36;102361.66;4954696;28;45654;-81
2022/03/26 04:17:33;;;;;;;;;44.25;39.75;;;;;13.39;37.36;102294.97;4955218;28;45409;-81
2022/03/26 04:19:59;;;;;;;;;49.75;40.75;;;;;13.81;37.35;102388.34;4960191;28;45422;-81
2022/03/26 04:22:24;;;;;;;;;43.25;38.00;;;;;13.72;37.77;102387.72;4978249;28;45389;-81
2022/03/26 04:24:49;;;;;;;;;44.50;37.00;;;;;13.64;38.16;102387.06;4977648;28;45992;-81
2022/03/26 04:27:15;;;;;;;;;49.00;38.25;;;;;13.47;37.77;102374.19;4977484;28;45445;-81
2022/03/26 04:29:40;;;;;;;;;56.00;40.75;;;;;13.59;38.24;102390.81;4977767;28;45497;-81
2022/03/26 04:32:06;;;;;;;;;51.25;40.75;;;;;13.43;38.00;102371.66;4977691;28;45448;-80
2022/03/26 04:34:31;;;;;;;;;53.25;41.00;;;;;13.22;38.24;102335.63;4977540;28;45388;-81
2022/03/26 04:36:57;;;;;;;;;56.25;38.25;;;;;13.36;38.39;102362.91;4977292;28;45319;-80
2022/03/26 04:39:22;;;;;;;;;37.50;32.00;;;;;13.28;38.33;102367.63;4977705;28;45370;-81
2022/03/26 04:41:48;;;;;;;;;51.25;42.00;;;;;13.48;38.49;102383.97;4958168;28;45404;-81
2022/03/26 04:44:14;;;;;;;;;49.00;39.00;;;;;13.40;38.62;102382.47;4957419;28;46289;-81
2022/03/26 04:46:39;;;;;;;;;50.75;41.00;;;;;13.16;38.65;102355.44;4956707;28;45314;-81
2022/03/26 04:49:05;;;;;;;;;51.25;38.50;;;;;13.05;38.75;102333.44;4966279;28;45479;-81
2022/03/26 04:51:30;;;;;;;;;56.75;45.50;;;;;13.33;38.75;102392.47;4958555;28;45337;-81
2022/03/26 04:53:55;;;;;;;;;44.50;40.00;;;;;13.18;38.37;102371.44;4957520;28;46168;-81
2022/03/26 04:56:21;;;;;;;;;50.75;39.50;;;;;13.04;38.84;102356.66;4957727;28;45404;-81
2022/03/26 04:58:46;;;;;;;;;54.75;41.00;;;;;13.27;38.68;102389.91;4961633;28;45421;-81
2022/03/26 05:01:12;;;;;;;;;50.25;41.50;;;;;13.21;39.02;102385.63;4967175;28;45344;-81
2022/03/26 05:03:37;;;;;;;;;53.25;42.50;;;;;13.05;38.91;102357.53;4977136;28;46021;-81
2022/03/26 05:06:02;;;;;;;;;44.75;38.00;;;;;13.18;38.92;102384.81;4976673;28;52931;-81
2022/03/26 05:08:28;;;;;;;;;52.00;41.50;;;;;13.13;38.36;102376.03;4977080;28;45293;-81
2022/03/26 05:10:53;;;;;;;;;47.75;39.25;;;;;13.21;38.75;102396.34;4977598;28;45414;-81
2022/03/26 05:13:18;;;;;;;;;50.50;41.00;;;;;13.08;39.08;102378.84;4959401;28;47450;-80
2022/03/26 05:15:44;;;;;;;;;56.75;42.75;;;;;13.03;39.10;102375.44;4976997;28;45389;-81
2022/03/26 05:18:09;;;;;;;;;55.00;45.00;;;;;13.16;39.02;102397.38;4983208;27;46055;-81
2022/03/26 05:20:35;;;;;;;;;49.75;41.25;;;;;12.82;38.97;102353.69;4996976;27;45605;-81
2022/03/26 05:23:02;;;;;;;;;53.50;42.75;;;;;13.05;39.32;102401.22;4978891;28;47006;-81
2022/03/26 05:25:28;;;;;;;;;52.50;42.25;;;;;12.96;39.27;102390.78;4996639;28;45404;-81
2022/03/26 05:27:53;;;;;;;;;48.50;40.50;;;;;12.87;39.42;102386.53;4994949;27;45410;-81
2022/03/26 05:30:20;;;;;;;;;49.25;39.25;;;;;12.96;39.68;102406.84;4978727;28;45448;-81
2022/03/26 05:32:45;;;;;;;;;53.00;41.50;;;;;12.95;39.50;102414.94;4996558;28;45424;-81
2022/03/26 05:35:13;;;;;;;;;53.25;40.75;;;;;12.94;39.36;102413.16;4994675;28;45758;-80
2022/03/26 05:37:43;;;;;;;;;50.25;36.75;;;;;12.95;39.56;102420.28;4996755;28;45310;-80
2022/03/26 05:40:11;;;;;;;;;46.75;38.25;;;;;12.88;39.79;102414.22;4996499;27;45565;-81
2022/03/26 05:42:37;;;;;;;;;52.50;42.00;;;;;12.76;39.52;102393.09;4996220;27;46152;-81
2022/03/26 05:45:04;;;;;;;;;47.75;38.00;;;;;12.93;39.39;102422.13;4996181;27;45246;-81
2022/03/26 05:47:33;;;;;;;;;51.50;41.25;;;;;12.90;39.74;102423.06;4992541;28;45488;-81
2022/03/26 05:49:59;;;;;;;;;46.50;35.75;;;;;12.90;39.93;102433.78;4976890;28;45574;-81
2022/03/26 05:52:24;;;;;;;;;48.50;40.25;;;;;12.91;39.80;102431.97;4974780;28;46292;-81
2022/03/26 05:54:50;;;;;;;;;47.75;38.25;;;;;12.85;40.22;102420.53;4975316;28;45413;-81
2022/03/26 05:57:15;;;;;;;;;56.75;44.25;;;;;12.85;40.10;102412.50;4976453;28;46088;-81
2022/03/26 05:59:41;;;;;;;;;47.25;37.75;;;;;12.83;40.22;102410.75;4994112;27;45359;-81
2022/03/26 06:02:06;;;;;;;;;46.75;39.00;;;;;12.65;40.33;102393.41;5005532;28;47776;-82
2022/03/26 06:04:33;;;;;;;;;47.00;39.00;;;;;12.76;40.43;102412.72;4994181;28;45423;-81
2022/03/26 06:06:59;;;;;;;;;48.50;40.25;;;;;12.76;41.11;102428.78;4981305;28;45564;-82
2022/03/26 06:09:24;;;;;;;;;40.25;34.75;;;;;12.68;41.12;102412.03;4995958;28;45441;-81
2022/03/26 06:11:50;;;;;;;;;77.25;69.25;;;;;12.65;41.12;102412.13;5045251;28;46229;-80
2022/03/26 06:14:17;;;;;;;;;66.25;52.00;;;;;12.33;41.28;102360.31;5013108;28;45429;-81
2022/03/26 06:16:43;;;;;;;;;49.75;40.75;;;;;12.54;41.36;102404.34;5063800;28;46741;-82
2022/03/26 06:19:09;;;;;;;;;46.00;37.00;;;;;12.44;41.36;102392.16;4995449;28;45423;-81
2022/03/26 06:21:34;;;;;;;;;52.25;39.50;;;;;12.59;41.08;102420.28;4995485;28;45975;-81
2022/03/26 06:24:00;;;;;;;;;49.00;39.75;;;;;12.30;41.29;102372.91;4995665;28;45365;-82
2022/03/26 06:26:26;;;;;;;;;55.25;40.50;;;;;12.77;41.02;102451.94;5064570;28;45763;-82
2022/03/26 06:28:52;;;;;;;;;51.50;41.25;;;;;12.37;41.46;102386.06;4997051;28;45342;-82
2022/03/26 06:31:18;;;;;;;;;56.50;41.00;;;;;12.70;41.13;102444.97;5051061;28;45323;-82
2022/03/26 06:33:43;;;;;;;;;47.75;39.00;;;;;12.59;41.58;102431.88;5078519;28;45383;-82
2022/03/26 06:36:08;;;;;;;;;48.50;39.75;;;;;12.73;41.62;102450.25;5078700;28;45345;-82
2022/03/26 06:38:38;;;;;;;;;48.50;39.50;;;;;12.32;41.65;102382.63;5003776;28;45318;-82
2022/03/26 06:41:05;;;;;;;;;55.00;43.00;;;;;12.62;41.64;102437.16;5000987;28;47355;-82
2022/03/26 06:43:31;;;;;;;;;57.00;43.50;;;;;12.82;42.00;102467.88;5038817;28;45332;-82
2022/03/26 06:45:56;;;;;;;;;60.00;46.25;;;;;12.66;41.73;102432.59;5040674;28;45687;-80
2022/03/26 06:48:21;;;;;;;;;55.75;44.00;;;;;12.52;42.01;102411.53;4971050;28;45605;-81
2022/03/26 06:50:46;;;;;;;;;50.75;41.25;;;;;12.79;42.17;102452.78;5063752;28;46534;-82
2022/03/26 06:53:12;;;;;;;;;51.50;41.75;;;;;12.92;41.92;102468.50;4995158;28;45515;-82
2022/03/26 06:55:37;;;;;;;;;57.25;44.25;;;;;12.42;41.98;102388.63;5037993;28;45386;-84
2022/03/26 06:58:02;;;;;;;;;48.25;38.50;;;;;12.61;41.90;102413.97;5078617;28;45511;-80
2022/03/26 07:00:28;;;;;;;;;56.25;43.00;;;;;13.02;41.77;102486.97;5009053;28;45589;-79
2022/03/26 07:02:53;;;;;;;;;49.75;39.75;;;;;12.87;41.99;102450.75;5029706;28;52261;-80
2022/03/26 07:05:19;;;;;;;;;56.50;42.50;;;;;12.92;42.07;102453.31;5027149;28;45557;-80
2022/03/26 07:07:44;;;;;;;;;53.25;44.25;;;;;13.14;42.30;102483.09;5031296;28;45352;-80
2022/03/26 07:10:10;;;;;;;;;61.00;47.50;;;;;13.04;42.03;102465.50;5055413;28;62863;-80
2022/03/26 07:12:35;;;;;;;;;58.50;45.50;;;;;13.00;42.23;102456.69;5017276;27;45543;-81
2022/03/26 07:15:00;;;;;;;;;57.00;44.00;;;;;13.32;41.74;102494.25;5016273;28;45590;-80
2022/03/26 07:17:26;;;;;;;;;54.00;41.50;;;;;13.01;41.57;102436.16;5041957;28;45803;-81
2022/03/26 07:19:52;;;;;;;;;61.00;47.50;;;;;13.15;41.41;102452.72;5045232;28;45801;-82
2022/03/26 07:22:18;;;;;;;;;63.75;47.75;;;;;13.46;41.57;102511.72;5012594;28;45358;-81
2022/03/26 07:24:43;;;;;;;;;51.75;43.25;;;;;13.59;41.09;102506.91;5079272;27;45585;-81
2022/03/26 07:27:08;;;;;;;;;56.75;46.25;;;;;13.66;40.60;102505.81;5021353;28;45232;-81
2022/03/26 07:29:35;;;;;;;;;50.50;41.75;;;;;13.47;40.58;102461.72;5077382;28;46522;-81
2022/03/26 07:32:00;;;;;;;;;54.50;44.00;;;;;13.61;40.01;102485.44;5077869;28;45438;-81
2022/03/26 07:34:26;;;;;;;;;50.75;41.00;;;;;13.52;39.42;102451.75;5007060;28;45355;-81
2022/03/26 07:36:53;;;;;;;;;26.50;21.75;;;;;13.75;38.57;102464.47;5011603;28;45562;-81
2022/03/26 07:39:19;;;;;;;;;51.50;40.50;;;;;13.35;38.23;102381.72;5045696;28;46364;-81
2022/03/26 07:41:45;;;;;;;;;39.75;37.25;;;;;13.83;38.01;102450.84;5040859;28;45548;-81
2022/03/26 07:44:10;;;;;;;;;45.25;36.25;;;;;14.27;38.03;102507.59;5015963;28;45445;-81
2022/03/26 07:46:35;;;;;;;;;48.75;40.00;;;;;14.35;37.35;102500.19;4993666;28;45436;-82
2022/03/26 07:49:01;;;;;;;;;51.50;39.50;;;;;14.42;37.29;102507.13;5015756;28;45425;-81
2022/03/26 07:51:26;;;;;;;;;35.00;31.25;;;;;14.44;36.99;102482.91;5040787;28;45409;-81
2022/03/26 07:53:52;;;;;;;;;42.75;33.75;;;;;14.64;36.93;102506.47;5044118;28;45968;-81
2022/03/26 07:56:18;;;;;;;;;41.25;35.00;;;;;14.50;36.92;102467.50;5018226;28;45400;-80
2022/03/26 07:58:43;;;;;;;;;35.00;30.25;;;;;14.81;36.97;102509.47;5076955;28;45501;-81
2022/03/26 08:01:10;;;;;;;;;43.50;36.00;;;;;14.83;36.70;102496.00;5050638;28;45432;-81
2022/03/26 08:03:36;;;;;;;;;42.25;34.75;;;;;14.81;36.14;102476.38;4994078;28;45468;-83
2022/03/26 08:06:01;;;;;;;;;41.50;35.75;;;;;14.84;36.04;102476.28;5077309;28;45314;-82
2022/03/26 08:08:27;;;;;;;;;45.25;36.00;;;;;15.05;35.87;102512.25;5077075;28;46047;-82
2022/03/26 08:10:52;;;;;;;;;40.25;35.50;;;;;14.89;35.65;102468.94;4980591;28;45311;-83
2022/03/26 08:13:18;;;;;;;;;43.25;36.50;;;;;15.02;35.80;102478.34;4974747;28;45405;-82
2022/03/26 08:15:43;;;;;;;;;35.50;32.00;;;;;15.21;35.54;102497.38;4974711;28;45549;-81
2022/03/26 08:18:08;;;;;;;;;42.25;35.25;;;;;15.46;35.37;102515.31;4988390;28;51779;-80
2022/03/26 08:20:34;;;;;;;;;36.50;33.75;;;;;15.21;34.73;102454.38;5062358;28;45454;-80
2022/03/26 08:22:59;;;;;;;;;37.25;33.25;;;;;15.46;35.24;102478.56;4974777;28;45379;-80
2022/03/26 08:28:11;;;;;;;;;40.25;34.00;;;;;15.98;34.04;102511.59;5076642;28;45853;-80
2022/03/26 08:30:37;;;;;;;;;40.50;34.75;;;;;16.21;34.01;102508.03;5007943;28;45381;-80
2022/03/26 08:33:03;;;;;;;;;31.75;26.25;;;;;16.61;32.92;102487.59;5076487;28;45343;-80
2022/03/26 08:35:33;;;;;;;;;34.67;32.00;;;;;17.26;32.42;102477.66;5038840;28;45405;-80
2022/03/26 08:37:59;;;;;;;;;41.50;32.50;;;;;17.90;30.91;102498.16;5047854;28;45373;-80
2022/03/26 08:40:24;;;;;;;;;37.50;32.75;;;;;18.29;30.65;102501.78;4991721;28;45301;-81
2022/03/26 08:42:49;;;;;;;;;36.67;33.00;;;;;18.14;30.43;102461.06;4993475;28;45726;-82
2022/03/26 08:45:15;;;;;;;;;42.33;33.33;;;;;18.41;30.57;102501.16;4981725;28;45361;-82
2022/03/26 08:47:40;;;;;;;;;40.00;33.00;;;;;18.59;30.24;102506.59;4984188;28;46093;-81
2022/03/26 08:50:06;;;;;;;;;40.33;34.33;;;;;18.74;29.96;102505.84;5050724;28;45358;-80
2022/03/26 08:52:34;;;;;;;;;35.00;30.67;;;;;18.90;28.93;102493.34;5071287;28;45452;-81
2022/03/26 08:55:00;;;;;;;;;33.67;29.67;;;;;19.12;28.61;102500.34;4993494;28;45499;-80
2022/03/26 08:57:25;;;;;;;;;41.00;34.00;;;;;19.33;28.68;102501.06;4984327;28;46195;-80
2022/03/26 08:59:50;;;;;;;;;40.33;32.00;;;;;19.97;28.33;102483.22;5029890;28;45662;-80
2022/03/26 09:02:16;;;;;;;;;35.67;32.00;;;;;21.33;26.18;102501.50;4983914;28;45650;-81
2022/03/26 09:04:41;;;;;;;;;34.33;32.00;;;;;21.89;25.53;102502.56;4976272;28;45374;-82
2022/03/26 09:07:06;;;;;;;;;42.67;34.00;;;;;21.47;25.36;102471.72;5021175;28;46527;-82
2022/03/26 09:09:32;;;;;;;;;40.33;32.33;;;;;21.59;26.35;102499.94;5039822;28;45327;-81
2022/03/26 09:11:57;;;;;;;;;43.00;32.67;;;;;21.57;25.28;102436.75;5050239;28;45343;-81
2022/03/26 09:14:22;;;;;;;;;33.00;30.33;;;;;22.81;23.98;102459.47;5080187;28;45429;-81
2022/03/26 09:16:47;;;;;;;;;34.67;30.33;;;;;23.97;22.99;102436.75;4995835;28;45356;-81
2022/03/26 09:19:13;;;;;;;;;28.00;25.67;;;;;25.12;22.23;102471.66;5025011;28;45333;-81
2022/03/26 09:21:38;;;;;;;;;27.67;27.00;;;;;25.95;21.34;102456.06;5035406;28;45397;-81
2022/03/26 09:24:04;;;;;;;;;40.00;32.33;;;;;26.71;20.77;102460.63;5054148;28;45635;-81
2022/03/26 09:26:29;;;;;;;;;36.67;33.33;;;;;27.50;19.89;102471.13;5000941;28;46061;-82
2022/03/26 09:28:54;;;;;;;;;35.00;32.00;;;;;28.48;19.96;102469.63;5051603;28;45485;-82
2022/03/26 09:31:20;;;;;;;;;32.00;29.67;;;;;29.18;18.60;102472.25;5025712;28;45528;-82
2022/03/26 09:33:47;;;;;;;;;36.33;32.00;;;;;29.69;17.75;102440.75;5044732;27;45511;-82
2022/03/26 09:36:12;;;;;;;;;35.00;31.00;;;;;30.37;17.40;102455.97;5057838;28;45924;-81
2022/03/26 09:38:37;;;;;;;;;35.67;29.00;;;;;31.07;16.80;102461.66;4991829;28;45420;-82
2022/03/26 09:41:04;;;;;;;;;42.00;30.67;;;;;31.64;16.19;102425.38;5037039;28;45518;-82
2022/03/26 09:43:32;;;;;;;;;32.00;29.00;;;;;32.33;15.77;102439.91;4993674;28;45316;-82
2022/03/26 09:45:57;;;;;;;;;37.00;33.67;;;;;33.22;14.98;102468.66;5049042;28;45591;-82
2022/03/26 09:48:23;;;;;;;;;35.67;31.00;;;;;33.65;14.79;102402.91;5009234;28;45216;-82
2022/03/26 09:50:52;;;;;;;;;31.00;29.33;;;;;34.89;14.71;102464.78;5063659;28;45599;-85
2022/03/26 09:53:18;;;;;;;;;37.00;31.00;;;;;35.78;13.91;102461.28;5027205;28;45442;-83
2022/03/26 09:55:44;;;;;;;;;36.00;31.00;;;;;36.53;13.31;102440.63;5031224;28;46255;-83
2022/03/26 09:58:10;;;;;;;;;31.67;30.33;;;;;37.33;12.72;102421.88;5056166;28;45523;-82
2022/03/26 10:00:35;;;;;;;;;37.00;30.00;;;;;38.34;12.11;102440.75;5009222;28;45448;-83
2022/03/26 10:03:01;;;;;;;;;40.67;31.67;;;;;39.27;11.15;102463.16;5026067;27;45639;-82
2022/03/26 10:05:34;;;;;;;;;35.33;29.00;;;;;40.05;10.96;102446.38;5030097;28;47833;-83
2022/03/26 10:08:23;;;;;;;;;30.67;29.00;;;;;41.21;10.44;102452.69;5021927;28;45468;-83
2022/03/26 10:10:50;;;;;;;;;24.00;22.67;;;;;42.25;9.61;102454.69;4978770;28;45220;-83
2022/03/26 10:13:38;;;;;;;;;33.67;30.33;;;;;43.17;9.55;102452.31;5025250;28;45405;-83
2022/03/26 10:16:06;;;;;;;;;36.00;32.00;;;;;43.98;8.62;102443.16;5018815;28;46124;-84
2022/03/26 10:18:37;;;;;;;;;33.50;29.75;;;;;44.53;7.79;102430.44;5044776;28;45433;-83
2022/03/26 10:21:06;;;;;;;;;33.00;29.33;;;;;45.10;7.71;102438.69;5017127;28;45474;-84
2022/03/26 10:23:32;;;;;;;;;36.00;31.33;;;;;45.41;7.46;102419.44;5036849;28;45321;-82
2022/03/26 10:26:12;;;;;;;;;33.75;30.75;;;;;45.90;6.84;102439.22;5048319;28;45466;-81
2022/03/26 10:28:40;;;;;;;;;32.00;29.33;;;;;46.22;6.58;102427.16;5009018;28;45346;-81
2022/03/26 10:34:10;;;;;;;;;36.75;33.00;;;;;46.29;6.41;102427.78;5051600;28;45410;-80
2022/03/26 10:36:54;;;;;;;;;38.00;32.00;;;;;46.42;6.81;102433.03;5008604;28;46403;-80
2022/03/26 10:39:27;;;;;;;;;32.67;29.67;;;;;46.57;7.14;102439.94;5044729;28;45429;-80
2022/03/26 10:41:54;;;;;;;;;34.75;30.75;;;;;46.44;6.45;102410.22;5046012;28;45464;-81
2022/03/26 10:44:24;;;;;;;;;28.00;25.33;;;;;46.60;6.68;102436.56;5010375;28;45583;-80
2022/03/26 10:46:49;;;;;;;;;39.75;33.00;;;;;46.45;6.80;102438.13;4960810;28;47249;-80
2022/03/26 10:49:28;;;;;;;;;30.75;29.00;;;;;46.02;7.01;102419.38;5024233;28;45503;-79
2022/03/26 10:51:55;;;;;;;;;38.50;31.75;;;;;45.44;7.31;102394.41;5023867;28;45448;-79
2022/03/26 10:54:28;;;;;;;;;33.00;30.50;;;;;44.89;7.37;102403.75;4973667;28;45406;-79
2022/03/26 10:56:53;;;;;;;;;39.00;33.00;;;;;44.16;7.76;102392.38;4963795;28;46152;-79
2022/03/26 10:59:21;;;;;;;;;33.75;30.50;;;;;43.47;7.82;102350.22;5030412;28;45393;-80
2022/03/26 11:01:47;;;;;;;;;42.00;35.00;;;;;43.29;7.88;102386.91;5054818;28;45519;-79
2022/03/26 11:04:12;;;;;;;;;34.75;31.75;;;;;43.08;8.04;102413.63;4985388;28;45211;-80
2022/03/26 11:06:41;;;;;;;;;36.75;31.25;;;;;42.69;8.40;102413.25;5000098;28;46330;-80
2022/03/26 11:09:08;;;;;;;;;35.00;31.75;;;;;42.37;8.40;102416.31;5033720;28;45649;-80
2022/03/26 11:11:33;;;;;;;;;32.00;30.00;;;;;41.91;8.06;102385.09;4994614;28;45401;-80